createdAt,value
2018-04-13T00:00:23.200Z,12.30
2018-04-13T00:02:57.717Z,19.93
2018-04-13T00:05:32.152Z,22.50
2018-04-13T00:08:06.613Z,17.90
2018-04-13T00:10:40.964Z,15.70
2018-04-13T00:13:15.251Z,11.40
2018-04-13T00:15:49.722Z,15.20
2018-04-13T00:18:24.344Z,20.80
2018-04-13T00:20:58.816Z,21.93
2018-04-13T00:23:33.122Z,22.47
2018-04-13T00:26:08.317Z,16.60
2018-04-13T00:28:42.828Z,13.23
2018-04-13T00:31:17.134Z,11.00
2018-04-13T00:33:51.582Z,11.80
2018-04-13T00:36:26.095Z,13.43
2018-04-13T00:39:00.625Z,12.10
2018-04-13T00:41:35.174Z,17.17
2018-04-13T00:44:09.481Z,13.07
2018-04-13T00:46:44.108Z,19.17
2018-04-13T00:49:18.409Z,22.20
2018-04-13T00:51:52.816Z,21.37
2018-04-13T00:54:27.196Z,20.37
2018-04-13T00:57:01.792Z,18.77
2018-04-13T00:59:36.329Z,12.00
2018-04-13T01:02:10.698Z,12.40
2018-04-13T01:04:45.258Z,13.73
2018-04-13T01:07:20.371Z,16.10
2018-04-13T01:09:54.787Z,17.53
2018-04-13T01:12:29.130Z,19.43
2018-04-13T01:15:03.579Z,14.17
2018-04-13T01:17:37.973Z,13.33
2018-04-13T01:20:12.501Z,19.47
2018-04-13T01:22:47.621Z,17.07
2018-04-13T01:25:22.155Z,11.97
2018-04-13T01:27:56.562Z,18.37
2018-04-13T01:30:31.018Z,15.80
2018-04-13T01:33:05.330Z,16.80
2018-04-13T01:35:39.816Z,21.33
2018-04-13T01:38:14.400Z,15.93
2018-04-13T01:40:48.752Z,12.87
2018-04-13T01:43:23.193Z,11.83
2018-04-13T01:45:57.524Z,13.93
2018-04-13T01:48:31.973Z,20.03
2018-04-13T01:51:06.486Z,18.87
2018-04-13T01:53:40.845Z,15.33
2018-04-13T01:56:15.904Z,17.17
2018-04-13T01:58:51.268Z,18.43
2018-04-13T02:01:25.625Z,17.43
2018-04-13T02:04:00.093Z,12.83
2018-04-13T02:06:34.412Z,12.97
2018-04-13T02:09:08.946Z,18.10
2018-04-13T02:11:43.274Z,19.87
2018-04-13T02:14:17.585Z,16.40
2018-04-13T02:16:52.035Z,18.13
2018-04-13T02:19:26.742Z,16.13
2018-04-13T02:22:01.160Z,19.90
2018-04-13T02:24:35.475Z,11.33
2018-04-13T02:27:09.891Z,20.93
2018-04-13T02:29:44.273Z,16.90
2018-04-13T02:32:18.641Z,19.77
2018-04-13T02:34:53.158Z,19.10
2018-04-13T02:37:27.651Z,14.07
2018-04-13T02:40:02.111Z,13.63
2018-04-13T02:42:36.726Z,15.77
2018-04-13T02:45:11.144Z,15.93
2018-04-13T02:47:45.640Z,18.67
2018-04-13T02:50:20.601Z,19.07
2018-04-13T02:52:55.054Z,19.13
2018-04-13T02:55:29.663Z,24.27
2018-04-13T02:58:04.153Z,18.37
2018-04-13T03:00:38.690Z,19.13
2018-04-13T03:03:13.009Z,16.43
2018-04-13T03:05:48.318Z,13.13
2018-04-13T03:08:22.773Z,15.37
2018-04-13T03:10:57.265Z,12.33
2018-04-13T03:13:31.725Z,14.07
2018-04-13T03:16:06.090Z,11.57
2018-04-13T03:18:40.562Z,16.23
2018-04-13T03:21:15.768Z,12.67
2018-04-13T03:23:50.278Z,12.90
2018-04-13T03:26:24.959Z,17.23
2018-04-13T03:28:59.458Z,16.03
2018-04-13T03:31:34.804Z,10.70
2018-04-13T03:34:09.381Z,14.53
2018-04-13T03:36:43.733Z,17.10
2018-04-13T03:39:18.286Z,10.60
2018-04-13T03:41:52.812Z,13.63
2018-04-13T03:44:28.031Z,15.00
2018-04-13T03:47:02.435Z,14.00
2018-04-13T03:49:36.822Z,15.07
2018-04-13T03:52:11.385Z,15.47
2018-04-13T03:54:45.820Z,13.00
2018-04-13T03:57:20.488Z,20.23
2018-04-13T03:59:54.938Z,19.17
2018-04-13T04:02:29.282Z,16.93
2018-04-13T04:05:03.921Z,17.53
2018-04-13T04:07:38.247Z,15.90
2018-04-13T04:10:12.652Z,17.60
2018-04-13T04:12:47.042Z,20.50
2018-04-13T04:15:21.435Z,13.83
2018-04-13T04:17:55.825Z,14.17
2018-04-13T04:20:43.036Z,12.53
2018-04-13T04:23:29.251Z,17.60
2018-04-13T04:26:22.193Z,17.60
2018-04-13T04:28:57.544Z,16.97
2018-04-13T04:31:32.045Z,17.07
2018-04-13T04:34:06.873Z,12.30
2018-04-13T04:36:41.272Z,10.30
2018-04-13T04:39:15.551Z,15.57
2018-04-13T04:41:49.840Z,14.03
2018-04-13T04:44:24.147Z,16.33
2018-04-13T04:46:58.749Z,13.13
2018-04-13T04:49:33.117Z,17.63
2018-04-13T04:52:07.388Z,18.63
2018-04-13T04:54:42.422Z,18.67
2018-04-13T04:57:17.186Z,15.53
2018-04-13T04:59:51.615Z,11.63
2018-04-13T05:02:26.152Z,17.27
2018-04-13T05:05:00.751Z,14.63
2018-04-13T05:07:35.201Z,17.43
2018-04-13T05:10:09.603Z,16.43
2018-04-13T05:12:44.689Z,19.40
2018-04-13T05:15:19.155Z,11.23
2018-04-13T05:17:53.493Z,12.53
2018-04-13T05:20:29.521Z,15.00
2018-04-13T05:23:03.984Z,13.53
2018-04-13T05:25:38.358Z,15.77
2018-04-13T05:28:12.693Z,18.80
2018-04-13T05:30:47.097Z,15.77
2018-04-13T05:33:21.420Z,14.20
2018-04-13T05:35:55.791Z,16.43
2018-04-13T05:38:30.111Z,12.53
2018-04-13T05:41:04.609Z,17.00
2018-04-13T05:43:39.831Z,19.03
2018-04-13T05:46:14.385Z,22.17
2018-04-13T05:48:48.706Z,24.30
2018-04-13T05:51:23.109Z,27.27
2018-04-13T05:53:57.634Z,20.07
2018-04-13T05:56:32.051Z,18.40
2018-04-13T05:59:06.390Z,17.20
2018-04-13T06:01:40.709Z,37.90
2018-04-13T06:04:15.525Z,39.40
2018-04-13T06:06:49.858Z,39.37
2018-04-13T06:09:25.086Z,40.27
2018-04-13T06:12:01.035Z,40.33
2018-04-13T06:14:35.410Z,41.23
2018-04-13T06:17:09.770Z,40.60
2018-04-13T06:19:44.075Z,39.73
2018-04-13T06:22:18.461Z,40.50
2018-04-13T06:24:52.806Z,41.47
2018-04-13T06:27:27.267Z,39.43
2018-04-13T06:30:01.833Z,40.80
2018-04-13T06:32:36.392Z,39.20
2018-04-13T06:35:10.884Z,39.57
2018-04-13T06:37:45.437Z,40.00
2018-04-13T06:40:19.842Z,37.93
2018-04-13T06:42:54.570Z,39.93
2018-04-13T06:45:29.800Z,40.30
2018-04-13T06:48:04.252Z,36.47
2018-04-13T06:50:38.684Z,39.33
2018-04-13T06:53:13.032Z,36.77
2018-04-13T06:55:49.132Z,35.83
2018-04-13T06:58:23.645Z,39.03
2018-04-13T07:00:58.906Z,38.47
2018-04-13T07:03:33.334Z,39.50
2018-04-13T07:06:07.618Z,38.03
2018-04-13T07:08:42.090Z,39.27
2018-04-13T07:11:16.472Z,37.57
2018-04-13T07:13:50.792Z,38.50
2018-04-13T07:16:25.187Z,38.03
2018-04-13T07:18:59.812Z,39.03
2018-04-13T07:21:34.236Z,36.50
2018-04-13T07:24:09.012Z,38.10
2018-04-13T07:26:43.417Z,37.17
2018-04-13T07:29:17.823Z,36.63
2018-04-13T07:31:52.368Z,34.50
2018-04-13T07:34:26.900Z,36.10
2018-04-13T07:37:01.139Z,35.43
2018-04-13T07:39:35.563Z,36.03
2018-04-13T07:42:10.194Z,34.37
2018-04-13T07:44:44.466Z,34.90
2018-04-13T07:47:18.780Z,34.40
2018-04-13T07:49:53.098Z,34.37
2018-04-13T07:52:27.429Z,35.07
2018-04-13T07:55:01.945Z,34.77
2018-04-13T07:57:36.207Z,34.63
2018-04-13T08:00:10.674Z,35.20
2018-04-13T08:02:45.309Z,37.07
2018-04-13T08:05:19.778Z,34.60
2018-04-13T08:07:54.138Z,36.00
2018-04-13T08:10:28.678Z,36.53
2018-04-13T08:13:02.998Z,37.33
2018-04-13T08:15:37.386Z,37.70
2018-04-13T08:21:19.247Z,36.00
2018-04-13T08:23:53.611Z,37.13
2018-04-13T08:26:27.952Z,37.53
2018-04-13T08:29:02.358Z,39.97
2018-04-13T08:31:36.875Z,36.67
2018-04-13T08:34:11.331Z,41.17
2018-04-13T08:36:46.614Z,38.67
2018-04-13T08:39:21.095Z,38.57
2018-04-13T08:41:55.387Z,42.67
2018-04-13T08:44:29.845Z,39.70
2018-04-13T08:47:04.139Z,37.03
2018-04-13T08:49:38.668Z,41.47
2018-04-13T08:52:13.089Z,39.43
2018-04-13T08:54:47.546Z,37.47
2018-04-13T08:57:21.802Z,34.33
2018-04-13T08:59:56.463Z,36.30
2018-04-13T09:02:30.875Z,40.97
2018-04-13T09:05:05.177Z,35.73
2018-04-13T09:07:39.670Z,34.57
2018-04-13T09:10:14.113Z,33.03
2018-04-13T09:12:49.360Z,35.93
2018-04-13T09:15:23.824Z,35.47
2018-04-13T09:17:58.143Z,36.23
2018-04-13T09:20:32.448Z,33.50
2018-04-13T09:23:06.811Z,34.40
2018-04-13T09:25:41.160Z,34.77
2018-04-13T09:28:15.686Z,33.13
2018-04-13T09:30:49.960Z,31.03
2018-04-13T09:33:24.275Z,23.10
2018-04-13T09:35:59.377Z,24.73
2018-04-13T09:38:33.750Z,27.13
2018-04-13T09:41:08.206Z,24.60
2018-04-13T09:43:42.537Z,23.70
2018-04-13T09:46:16.877Z,20.20
2018-04-13T09:48:51.261Z,21.60
2018-04-13T09:51:25.643Z,19.37
2018-04-13T09:54:00.716Z,20.73
2018-04-13T09:56:35.154Z,18.93
2018-04-13T09:59:09.480Z,18.90
2018-04-13T10:01:43.979Z,15.20
2018-04-13T10:04:19.963Z,15.13
2018-04-13T10:06:54.412Z,13.60
2018-04-13T10:09:28.737Z,15.77
2018-04-13T10:12:03.813Z,14.03
2018-04-13T10:14:38.222Z,15.50
2018-04-13T10:17:12.637Z,14.13
2018-04-13T10:19:46.993Z,16.10
2018-04-13T10:22:21.276Z,16.27
2018-04-13T10:24:55.603Z,17.30
2018-04-13T10:27:29.915Z,16.27
2018-04-13T10:30:04.255Z,16.03
2018-04-13T10:32:38.648Z,16.30
2018-04-13T10:35:13.171Z,17.47
2018-04-13T10:37:48.228Z,15.77
2018-04-13T10:40:22.541Z,17.13
2018-04-13T10:42:56.893Z,17.07
2018-04-13T10:45:31.990Z,16.70
2018-04-13T10:48:06.324Z,17.77
2018-04-13T10:50:40.750Z,16.63
2018-04-13T10:53:15.168Z,17.07
2018-04-13T10:55:49.530Z,16.90
2018-04-13T10:58:24.771Z,17.50
2018-04-13T11:00:59.956Z,16.53
2018-04-13T11:03:34.310Z,16.27
2018-04-13T11:06:08.586Z,15.97
2018-04-13T11:08:42.896Z,14.33
2018-04-13T11:11:17.451Z,14.53
2018-04-13T11:13:51.874Z,14.57
2018-04-13T11:16:27.325Z,14.10
2018-04-13T11:19:02.560Z,13.57
2018-04-13T11:21:36.978Z,11.10
2018-04-13T11:24:11.291Z,11.93
2018-04-13T11:26:45.588Z,11.93
2018-04-13T11:29:19.905Z,11.10
2018-04-13T11:31:54.385Z,11.70
2018-04-13T11:34:28.840Z,10.77
2018-04-13T11:37:03.190Z,8.53
2018-04-13T11:39:37.609Z,8.67
2018-04-13T11:42:12.740Z,8.00
2018-04-13T11:44:47.041Z,6.97
2018-04-13T11:47:21.465Z,7.13
2018-04-13T11:49:55.784Z,7.17
2018-04-13T11:52:30.104Z,7.03
2018-04-13T11:55:05.125Z,6.90
2018-04-13T11:57:39.537Z,5.70
2018-04-13T12:00:13.968Z,7.30
2018-04-13T12:02:48.485Z,8.00
2018-04-13T12:05:22.913Z,7.60
2018-04-13T12:07:57.377Z,8.13
2018-04-13T12:10:32.515Z,6.57
2018-04-13T12:13:06.806Z,8.57
2018-04-13T12:15:41.363Z,8.23
2018-04-13T12:18:15.780Z,9.00
2018-04-13T12:20:50.099Z,7.33
2018-04-13T12:23:24.581Z,9.50
2018-04-13T12:25:58.932Z,8.47
2018-04-13T12:28:33.247Z,8.57
2018-04-13T12:31:07.640Z,8.37
2018-04-13T12:33:41.943Z,9.33
2018-04-13T12:36:16.404Z,9.40
2018-04-13T12:38:50.680Z,10.60
2018-04-13T12:41:25.009Z,8.20
2018-04-13T12:43:59.502Z,10.47
2018-04-13T12:46:33.989Z,11.37
2018-04-13T12:49:08.332Z,10.53
2018-04-13T12:51:42.659Z,11.17
2018-04-13T12:54:17.136Z,10.87
2018-04-13T12:56:51.461Z,12.47
2018-04-13T12:59:26.450Z,10.93
2018-04-13T13:02:00.883Z,12.40
2018-04-13T13:04:35.320Z,12.67
2018-04-13T13:07:09.711Z,12.40
2018-04-13T13:09:44.044Z,11.60
2018-04-13T13:12:18.601Z,13.23
2018-04-13T13:14:52.860Z,12.30
2018-04-13T13:17:27.187Z,12.57
2018-04-13T13:20:01.494Z,15.87
2018-04-13T13:22:35.966Z,13.87
2018-04-13T13:25:10.265Z,13.07
2018-04-13T13:27:44.613Z,15.27
2018-04-13T13:30:19.044Z,15.90
2018-04-13T13:32:53.401Z,16.23
2018-04-13T13:35:27.736Z,15.73
2018-04-13T13:38:02.849Z,13.63
2018-04-13T13:40:37.161Z,15.93
2018-04-13T13:43:12.224Z,14.10
2018-04-13T13:45:46.585Z,16.40
2018-04-13T13:48:20.855Z,16.80
2018-04-13T13:50:55.296Z,15.67
2018-04-13T13:53:30.417Z,14.60
2018-04-13T13:56:05.473Z,15.57
2018-04-13T13:58:39.965Z,13.73
2018-04-13T14:01:14.376Z,15.67
2018-04-13T14:03:49.484Z,13.07
2018-04-13T14:06:23.808Z,14.47
2018-04-13T14:08:58.903Z,14.70
2018-04-13T14:11:33.323Z,15.10
2018-04-13T14:14:07.769Z,14.60
2018-04-13T14:16:42.164Z,14.83
2018-04-13T14:19:16.572Z,14.47
2018-04-13T14:21:50.850Z,13.40
2018-04-13T14:24:25.320Z,13.93
2018-04-13T14:26:59.681Z,13.90
2018-04-13T14:29:34.034Z,14.37
2018-04-13T14:32:08.348Z,13.97
2018-04-13T14:34:43.408Z,14.37
2018-04-13T14:37:17.837Z,15.47
2018-04-13T14:39:52.164Z,13.47
2018-04-13T14:42:26.596Z,12.63
2018-04-13T14:45:00.902Z,13.87
2018-04-13T14:47:35.322Z,14.37
2018-04-13T14:50:09.763Z,14.17
2018-04-13T14:52:44.094Z,13.63
2018-04-13T14:55:18.499Z,12.90
2018-04-13T14:57:53.513Z,14.27
2018-04-13T15:00:27.809Z,16.03
2018-04-13T15:03:03.052Z,14.73
2018-04-13T15:05:37.974Z,13.87
2018-04-13T15:08:12.331Z,14.67
2018-04-13T15:10:46.704Z,13.80
2018-04-13T15:13:21.072Z,13.73
2018-04-13T15:15:55.396Z,15.10
2018-04-13T15:18:29.870Z,15.43
2018-04-13T15:21:05.042Z,15.30
2018-04-13T15:23:39.972Z,13.30
2018-04-13T15:26:14.264Z,14.40
2018-04-13T15:28:48.718Z,14.10
2018-04-13T15:31:23.251Z,14.53
2018-04-13T15:33:57.525Z,14.17
2018-04-13T15:36:31.937Z,13.70
2018-04-13T15:39:06.321Z,15.07
2018-04-13T15:41:40.765Z,13.73
2018-04-13T15:44:15.129Z,16.37
2018-04-13T15:46:49.540Z,16.47
2018-04-13T15:49:26.577Z,15.77
2018-04-13T15:52:00.938Z,16.90
2018-04-13T15:54:35.384Z,17.60
2018-04-13T15:57:09.709Z,20.23
2018-04-13T15:59:44.108Z,16.70
2018-04-13T16:02:18.606Z,17.27
2018-04-13T16:04:53.073Z,16.70
2018-04-13T16:07:27.398Z,17.00
2018-04-13T16:10:01.717Z,17.57
2018-04-13T16:12:36.783Z,18.10
2018-04-13T16:15:11.109Z,16.07
2018-04-13T16:17:45.392Z,15.33
2018-04-13T16:20:20.523Z,16.40
2018-04-13T16:22:54.942Z,12.83
2018-04-13T16:25:29.349Z,13.20
2018-04-13T16:28:03.759Z,15.27
2018-04-13T16:30:38.296Z,13.17
2018-04-13T16:33:12.812Z,13.57
2018-04-13T16:35:47.220Z,15.33
2018-04-13T16:38:22.369Z,13.07
2018-04-13T16:40:56.900Z,14.20
2018-04-13T16:43:31.272Z,14.27
2018-04-13T16:46:06.524Z,13.63
2018-04-13T16:48:40.971Z,13.03
2018-04-13T16:51:15.703Z,13.50
2018-04-13T16:53:50.150Z,13.60
2018-04-13T16:56:24.412Z,14.63
2018-04-13T16:58:59.492Z,14.07
2018-04-13T17:01:33.924Z,13.83
2018-04-13T17:04:08.325Z,15.70
2018-04-13T17:06:42.849Z,14.47
2018-04-13T17:09:17.182Z,15.17
2018-04-13T17:11:51.671Z,16.27
2018-04-13T17:14:26.208Z,15.53
2018-04-13T17:17:00.500Z,15.27
2018-04-13T17:19:34.850Z,14.47
2018-04-13T17:22:09.562Z,15.57
2018-04-13T17:24:43.788Z,14.57
2018-04-13T17:27:19.020Z,16.90
2018-04-13T17:29:53.517Z,15.43
2018-04-13T17:32:27.981Z,15.50
2018-04-13T17:35:03.219Z,16.50
2018-04-13T17:37:37.644Z,15.87
2018-04-13T17:40:12.039Z,15.10
2018-04-13T17:42:46.643Z,16.40
2018-04-13T17:45:20.988Z,14.50
2018-04-13T17:47:55.512Z,16.27
2018-04-13T17:50:29.912Z,15.30
2018-04-13T17:53:04.594Z,15.37
2018-04-13T17:55:38.911Z,17.47
2018-04-13T17:58:13.156Z,16.03
2018-04-13T18:00:47.843Z,15.67
2018-04-13T18:03:22.456Z,15.80
2018-04-13T18:05:56.857Z,16.77
2018-04-13T18:08:31.411Z,17.20
2018-04-13T18:11:08.069Z,16.00
2018-04-13T18:13:43.106Z,18.00
2018-04-13T18:16:18.233Z,17.70
2018-04-13T18:18:52.774Z,17.23
2018-04-13T18:21:27.084Z,17.17
2018-04-13T18:24:01.596Z,19.00
2018-04-13T18:26:35.878Z,20.70
2018-04-13T18:29:10.312Z,20.00
2018-04-13T18:31:45.692Z,21.43
2018-04-13T18:34:20.103Z,19.37
2018-04-13T18:36:54.516Z,21.90
2018-04-13T18:39:29.193Z,21.37
2018-04-13T18:42:03.610Z,20.10
2018-04-13T18:44:38.836Z,24.43
2018-04-13T18:47:13.224Z,23.27
2018-04-13T18:49:48.354Z,25.77
2018-04-13T18:52:22.712Z,24.67
2018-04-13T18:54:57.240Z,23.53
2018-04-13T18:57:31.660Z,22.60
2018-04-13T19:00:06.047Z,23.90
2018-04-13T19:02:41.080Z,24.47
2018-04-13T19:05:15.603Z,24.00
2018-04-13T19:07:50.865Z,24.20
2018-04-13T19:10:25.129Z,22.83
2018-04-13T19:12:59.625Z,24.30
2018-04-13T19:15:34.048Z,24.23
2018-04-13T19:18:08.331Z,24.60
2018-04-13T19:20:44.170Z,23.80
2018-04-13T19:23:18.820Z,24.37
2018-04-13T19:25:53.244Z,22.70
2018-04-13T19:28:28.329Z,23.47
2018-04-13T19:31:02.931Z,23.80
2018-04-13T19:33:37.321Z,22.93
2018-04-13T19:36:11.655Z,23.67
2018-04-13T19:38:45.934Z,23.47
2018-04-13T19:41:20.348Z,23.23
2018-04-13T19:43:54.699Z,24.07
2018-04-13T19:46:29.117Z,22.90
2018-04-13T19:49:03.489Z,23.87
2018-04-13T19:51:37.752Z,24.63
2018-04-13T19:54:14.420Z,24.17
2018-04-13T19:56:49.857Z,25.10
2018-04-13T19:59:24.256Z,26.33
2018-04-13T20:01:59.214Z,24.17
2018-04-13T20:04:33.769Z,24.60
2018-04-13T20:07:08.072Z,24.07
2018-04-13T20:09:42.490Z,24.63
2018-04-13T20:12:20.264Z,25.33
2018-04-13T20:14:54.568Z,25.67
2018-04-13T20:17:28.845Z,26.07
2018-04-13T20:20:03.336Z,26.80
2018-04-13T20:22:37.655Z,31.80
2018-04-13T20:25:12.072Z,31.50
2018-04-13T20:27:46.505Z,34.13
2018-04-13T20:30:20.911Z,34.87
2018-04-13T20:32:55.364Z,36.03
2018-04-13T20:35:29.887Z,37.40
2018-04-13T20:38:04.211Z,40.30
2018-04-13T20:40:38.708Z,39.03
2018-04-13T20:43:12.970Z,40.43
2018-04-13T20:45:47.560Z,39.90
2018-04-13T20:48:22.798Z,40.30
2018-04-13T20:50:57.357Z,39.60
2018-04-13T20:53:31.828Z,41.00
2018-04-13T20:56:06.148Z,41.53
2018-04-13T20:58:40.558Z,41.17
2018-04-13T21:01:15.794Z,40.47
2018-04-13T21:03:50.460Z,40.17
2018-04-13T21:06:24.864Z,40.27
2018-04-13T21:08:59.304Z,39.87
2018-04-13T21:11:34.524Z,40.97
2018-04-13T21:14:09.055Z,41.30
2018-04-13T21:16:43.592Z,42.67
2018-04-13T21:19:18.003Z,41.13
2018-04-13T21:21:52.276Z,42.13
2018-04-13T21:24:26.615Z,40.90
2018-04-13T21:27:01.144Z,41.27
2018-04-13T21:29:35.423Z,41.47
2018-04-13T21:32:09.996Z,42.20
2018-04-13T21:34:44.321Z,39.80
2018-04-13T21:37:18.632Z,40.87
2018-04-13T21:39:52.991Z,40.30
2018-04-13T21:42:27.259Z,41.23
2018-04-13T21:45:02.586Z,39.03
2018-04-13T21:47:37.855Z,39.40
2018-04-13T21:50:12.344Z,40.00
2018-04-13T21:52:47.504Z,39.67
2018-04-13T21:55:21.920Z,40.30
2018-04-13T21:57:57.732Z,40.20
2018-04-13T22:00:33.799Z,38.70
2018-04-13T22:03:09.136Z,39.40
2018-04-13T22:05:44.522Z,39.17
2018-04-13T22:08:19.547Z,40.27
2018-04-13T22:10:54.060Z,38.73
2018-04-13T22:13:32.216Z,39.00
2018-04-13T22:16:06.480Z,39.77
2018-04-13T22:18:40.936Z,39.00
2018-04-13T22:21:15.209Z,38.60
2018-04-13T22:23:49.492Z,39.07
2018-04-13T22:26:23.960Z,38.90
2018-04-13T22:28:58.259Z,39.90
2018-04-13T22:31:32.732Z,40.03
2018-04-13T22:34:07.065Z,40.57
2018-04-13T22:36:42.868Z,39.80
2018-04-13T22:39:17.220Z,40.23
2018-04-13T22:41:51.661Z,40.67
2018-04-13T22:44:26.171Z,38.07
2018-04-13T22:47:00.561Z,39.87
2018-04-13T22:49:35.009Z,39.97
2018-04-13T22:52:09.444Z,38.67
2018-04-13T22:54:44.049Z,39.30
2018-04-13T22:57:20.013Z,41.93
2018-04-13T22:59:54.516Z,40.33
2018-04-13T23:02:29.065Z,40.20
2018-04-13T23:05:03.468Z,41.37
2018-04-13T23:07:38.076Z,41.40
2018-04-13T23:10:12.509Z,40.53
2018-04-13T23:12:46.791Z,41.23
2018-04-13T23:15:21.174Z,40.50
2018-04-13T23:17:55.441Z,40.37
2018-04-13T23:20:29.873Z,40.83
2018-04-13T23:23:04.210Z,41.23
2018-04-13T23:25:38.944Z,39.93
2018-04-13T23:28:13.453Z,41.70
2018-04-13T23:30:47.768Z,40.67
2018-04-13T23:33:22.120Z,39.30
2018-04-13T23:35:56.732Z,39.17
2018-04-13T23:38:30.995Z,40.03
2018-04-13T23:41:05.464Z,40.43
2018-04-13T23:43:39.988Z,40.03
2018-04-13T23:46:14.281Z,40.57
2018-04-13T23:48:48.732Z,40.80
2018-04-13T23:51:23.044Z,39.87
2018-04-13T23:53:57.572Z,41.10
2018-04-13T23:56:32.708Z,41.33
2018-04-13T23:59:07.232Z,40.77
